sensor_id;sensor_type;location;lat;lon;timestamp;pressure;altitude;pressure_sealevel;temperature;humidity
43281;BME280;62175;49.416;8.690;2023-06-10T00:01:14;100087.69;;;24.20;43.29
43281;BME280;62175;49.416;8.690;2023-06-10T00:03:42;100087.60;;;24.24;43.51
43281;BME280;62175;49.416;8.690;2023-06-10T00:06:08;100085.71;;;24.20;45.08
43281;BME280;62175;49.416;8.690;2023-06-10T00:08:35;100085.19;;;24.23;42.91
43281;BME280;62175;49.416;8.690;2023-06-10T00:11:02;100083.65;;;24.23;44.52
43281;BME280;62175;49.416;8.690;2023-06-10T00:13:29;100075.52;;;23.97;41.93
43281;BME280;62175;49.416;8.690;2023-06-10T00:15:56;100081.29;;;23.87;41.61
43281;BME280;62175;49.416;8.690;2023-06-10T00:18:23;100079.99;;;24.16;42.67
43281;BME280;62175;49.416;8.690;2023-06-10T00:20:50;100080.85;;;23.85;41.26
43281;BME280;62175;49.416;8.690;2023-06-10T00:23:16;100081.95;;;24.19;42.60
43281;BME280;62175;49.416;8.690;2023-06-10T00:25:43;100076.17;;;23.79;41.98
43281;BME280;62175;49.416;8.690;2023-06-10T00:28:10;100076.00;;;24.12;40.75
43281;BME280;62175;49.416;8.690;2023-06-10T00:30:37;100072.06;;;23.87;41.37
43281;BME280;62175;49.416;8.690;2023-06-10T00:33:04;100075.60;;;24.17;41.73
43281;BME280;62175;49.416;8.690;2023-06-10T00:35:31;100074.25;;;23.80;41.08
43281;BME280;62175;49.416;8.690;2023-06-10T00:37:58;100070.98;;;23.77;41.63
43281;BME280;62175;49.416;8.690;2023-06-10T00:40:25;100068.82;;;24.29;42.42
43281;BME280;62175;49.416;8.690;2023-06-10T00:42:52;100065.82;;;23.58;41.39
43281;BME280;62175;49.416;8.690;2023-06-10T00:45:18;100071.31;;;23.84;41.59
43281;BME280;62175;49.416;8.690;2023-06-10T00:47:46;100066.76;;;23.97;41.61
43281;BME280;62175;49.416;8.690;2023-06-10T00:50:12;100070.01;;;24.28;41.76
43281;BME280;62175;49.416;8.690;2023-06-10T00:52:39;100069.65;;;23.76;41.28
43281;BME280;62175;49.416;8.690;2023-06-10T00:55:07;100070.20;;;23.82;41.20
43281;BME280;62175;49.416;8.690;2023-06-10T00:57:34;100072.10;;;24.08;40.59
43281;BME280;62175;49.416;8.690;2023-06-10T01:00:01;100073.38;;;24.33;43.18
43281;BME280;62175;49.416;8.690;2023-06-10T01:02:28;100075.77;;;23.91;40.88
43281;BME280;62175;49.416;8.690;2023-06-10T01:04:55;100075.21;;;24.02;40.58
43281;BME280;62175;49.416;8.690;2023-06-10T01:07:25;100076.96;;;24.04;40.69
43281;BME280;62175;49.416;8.690;2023-06-10T01:09:59;100079.36;;;23.85;41.28
43281;BME280;62175;49.416;8.690;2023-06-10T01:12:36;100080.68;;;23.87;42.95
43281;BME280;62175;49.416;8.690;2023-06-10T01:15:07;100080.71;;;23.85;42.10
43281;BME280;62175;49.416;8.690;2023-06-10T01:17:38;100082.43;;;23.70;40.79
43281;BME280;62175;49.416;8.690;2023-06-10T01:20:18;100082.79;;;23.91;42.65
43281;BME280;62175;49.416;8.690;2023-06-10T01:22:45;100085.19;;;23.93;40.65
43281;BME280;62175;49.416;8.690;2023-06-10T01:25:12;100088.25;;;23.99;44.22
43281;BME280;62175;49.416;8.690;2023-06-10T01:27:40;100087.45;;;23.72;41.01
43281;BME280;62175;49.416;8.690;2023-06-10T01:30:13;100089.09;;;23.73;41.35
43281;BME280;62175;49.416;8.690;2023-06-10T01:32:45;100088.85;;;23.76;43.91
43281;BME280;62175;49.416;8.690;2023-06-10T01:35:17;100092.40;;;24.24;41.02
43281;BME280;62175;49.416;8.690;2023-06-10T01:37:46;100095.00;;;23.82;41.42
43281;BME280;62175;49.416;8.690;2023-06-10T01:40:16;100097.15;;;24.08;43.13
43281;BME280;62175;49.416;8.690;2023-06-10T01:42:43;100101.15;;;23.80;40.74
43281;BME280;62175;49.416;8.690;2023-06-10T01:45:11;100101.67;;;24.01;40.43
43281;BME280;62175;49.416;8.690;2023-06-10T01:47:38;100103.09;;;24.29;40.85
43281;BME280;62175;49.416;8.690;2023-06-10T01:50:07;100101.51;;;23.93;40.33
43281;BME280;62175;49.416;8.690;2023-06-10T01:52:35;100100.74;;;23.71;40.57
43281;BME280;62175;49.416;8.690;2023-06-10T01:55:01;100103.05;;;24.21;41.06
43281;BME280;62175;49.416;8.690;2023-06-10T01:57:29;100102.68;;;24.21;42.47
43281;BME280;62175;49.416;8.690;2023-06-10T01:59:56;100101.98;;;24.00;41.54
43281;BME280;62175;49.416;8.690;2023-06-10T02:02:23;100102.73;;;23.70;42.45
43281;BME280;62175;49.416;8.690;2023-06-10T02:04:49;100103.53;;;23.98;42.23
43281;BME280;62175;49.416;8.690;2023-06-10T02:07:16;100105.84;;;23.92;44.59
43281;BME280;62175;49.416;8.690;2023-06-10T02:09:43;100101.62;;;24.12;41.91
43281;BME280;62175;49.416;8.690;2023-06-10T02:12:10;100102.58;;;23.67;43.23
43281;BME280;62175;49.416;8.690;2023-06-10T02:14:38;100102.92;;;23.84;42.86
43281;BME280;62175;49.416;8.690;2023-06-10T02:17:05;100104.02;;;24.17;41.27
43281;BME280;62175;49.416;8.690;2023-06-10T02:19:32;100102.20;;;24.11;42.07
43281;BME280;62175;49.416;8.690;2023-06-10T02:21:59;100106.22;;;23.82;42.72
43281;BME280;62175;49.416;8.690;2023-06-10T02:24:26;100106.90;;;23.84;40.86
43281;BME280;62175;49.416;8.690;2023-06-10T02:26:53;100106.61;;;23.87;44.23
43281;BME280;62175;49.416;8.690;2023-06-10T02:29:20;100108.27;;;23.78;41.01
43281;BME280;62175;49.416;8.690;2023-06-10T02:31:46;100109.72;;;24.00;41.39
43281;BME280;62175;49.416;8.690;2023-06-10T02:34:14;100111.84;;;23.47;40.52
43281;BME280;62175;49.416;8.690;2023-06-10T02:36:41;100115.58;;;23.84;42.08
43281;BME280;62175;49.416;8.690;2023-06-10T02:39:08;100118.77;;;23.87;40.76
43281;BME280;62175;49.416;8.690;2023-06-10T02:41:35;100121.65;;;23.79;41.52
43281;BME280;62175;49.416;8.690;2023-06-10T02:44:02;100120.72;;;23.80;41.75
43281;BME280;62175;49.416;8.690;2023-06-10T02:46:28;100122.33;;;23.62;41.75
43281;BME280;62175;49.416;8.690;2023-06-10T02:48:55;100123.77;;;23.81;41.27
43281;BME280;62175;49.416;8.690;2023-06-10T02:51:22;100123.20;;;23.80;42.51
43281;BME280;62175;49.416;8.690;2023-06-10T02:53:50;100127.00;;;23.75;43.29
43281;BME280;62175;49.416;8.690;2023-06-10T02:56:17;100126.21;;;23.54;44.19
43281;BME280;62175;49.416;8.690;2023-06-10T02:58:44;100126.02;;;23.78;41.40
43281;BME280;62175;49.416;8.690;2023-06-10T03:01:12;100127.56;;;23.75;40.75
43281;BME280;62175;49.416;8.690;2023-06-10T03:03:39;100125.89;;;23.73;40.94
43281;BME280;62175;49.416;8.690;2023-06-10T03:06:07;100126.43;;;23.31;41.14
43281;BME280;62175;49.416;8.690;2023-06-10T03:08:34;100126.50;;;23.74;42.62
43281;BME280;62175;49.416;8.690;2023-06-10T03:11:01;100127.96;;;23.70;43.34
43281;BME280;62175;49.416;8.690;2023-06-10T03:13:28;100128.57;;;23.50;41.52
43281;BME280;62175;49.416;8.690;2023-06-10T03:15:55;100128.01;;;23.61;41.07
43281;BME280;62175;49.416;8.690;2023-06-10T03:18:26;100131.12;;;23.63;43.95
43281;BME280;62175;49.416;8.690;2023-06-10T03:20:53;100134.31;;;23.72;43.40
43281;BME280;62175;49.416;8.690;2023-06-10T03:23:20;100135.65;;;23.73;41.41
43281;BME280;62175;49.416;8.690;2023-06-10T03:25:47;100137.92;;;23.49;42.53
43281;BME280;62175;49.416;8.690;2023-06-10T03:28:15;100143.89;;;23.34;43.40
43281;BME280;62175;49.416;8.690;2023-06-10T03:30:42;100142.88;;;23.35;41.98
43281;BME280;62175;49.416;8.690;2023-06-10T03:33:09;100144.32;;;23.57;43.07
43281;BME280;62175;49.416;8.690;2023-06-10T03:35:36;100145.51;;;23.52;42.51
43281;BME280;62175;49.416;8.690;2023-06-10T03:38:03;100148.59;;;23.55;42.84
43281;BME280;62175;49.416;8.690;2023-06-10T03:40:30;100147.00;;;23.32;41.59
43281;BME280;62175;49.416;8.690;2023-06-10T03:42:57;100148.66;;;23.51;40.70
43281;BME280;62175;49.416;8.690;2023-06-10T03:45:24;100151.19;;;23.55;41.19
43281;BME280;62175;49.416;8.690;2023-06-10T03:47:51;100154.69;;;23.55;43.27
43281;BME280;62175;49.416;8.690;2023-06-10T03:50:18;100152.49;;;23.48;43.54
43281;BME280;62175;49.416;8.690;2023-06-10T03:52:45;100152.10;;;23.53;41.31
43281;BME280;62175;49.416;8.690;2023-06-10T03:55:12;100151.13;;;23.61;43.08
43281;BME280;62175;49.416;8.690;2023-06-10T03:57:39;100149.69;;;23.62;42.62
43281;BME280;62175;49.416;8.690;2023-06-10T04:00:08;100151.74;;;23.58;43.75
43281;BME280;62175;49.416;8.690;2023-06-10T04:02:35;100148.84;;;23.36;42.44
43281;BME280;62175;49.416;8.690;2023-06-10T04:05:03;100149.32;;;23.64;44.54
43281;BME280;62175;49.416;8.690;2023-06-10T04:07:31;100149.07;;;23.57;43.76
43281;BME280;62175;49.416;8.690;2023-06-10T04:09:59;100148.45;;;23.55;43.45
43281;BME280;62175;49.416;8.690;2023-06-10T04:12:25;100150.09;;;23.59;43.69
43281;BME280;62175;49.416;8.690;2023-06-10T04:14:53;100153.97;;;23.37;42.79
43281;BME280;62175;49.416;8.690;2023-06-10T04:17:20;100149.89;;;23.57;42.91
43281;BME280;62175;49.416;8.690;2023-06-10T04:19:47;100153.78;;;23.27;44.28
43281;BME280;62175;49.416;8.690;2023-06-10T04:22:14;100155.68;;;23.42;43.25
43281;BME280;62175;49.416;8.690;2023-06-10T04:24:42;100160.07;;;23.41;44.92
43281;BME280;62175;49.416;8.690;2023-06-10T04:27:09;100158.66;;;23.50;44.06
43281;BME280;62175;49.416;8.690;2023-06-10T04:29:36;100164.27;;;23.38;43.64
43281;BME280;62175;49.416;8.690;2023-06-10T04:32:03;100168.18;;;23.49;43.76
43281;BME280;62175;49.416;8.690;2023-06-10T04:34:30;100168.88;;;23.51;45.45
43281;BME280;62175;49.416;8.690;2023-06-10T04:36:57;100171.21;;;23.41;45.21
43281;BME280;62175;49.416;8.690;2023-06-10T04:39:24;100173.00;;;23.32;43.98
43281;BME280;62175;49.416;8.690;2023-06-10T04:41:51;100174.80;;;23.32;45.75
43281;BME280;62175;49.416;8.690;2023-06-10T04:44:18;100175.65;;;23.37;45.02
43281;BME280;62175;49.416;8.690;2023-06-10T04:46:45;100172.40;;;23.29;45.16
43281;BME280;62175;49.416;8.690;2023-06-10T04:49:12;100173.60;;;23.31;43.99
43281;BME280;62175;49.416;8.690;2023-06-10T04:51:39;100174.51;;;23.42;45.60
43281;BME280;62175;49.416;8.690;2023-06-10T04:54:06;100178.10;;;23.28;43.52
43281;BME280;62175;49.416;8.690;2023-06-10T04:56:34;100179.53;;;23.05;45.44
43281;BME280;62175;49.416;8.690;2023-06-10T04:59:01;100178.59;;;23.04;44.41
43281;BME280;62175;49.416;8.690;2023-06-10T05:01:28;100185.23;;;23.20;43.94
43281;BME280;62175;49.416;8.690;2023-06-10T05:03:55;100183.47;;;23.04;44.94
43281;BME280;62175;49.416;8.690;2023-06-10T05:06:22;100185.46;;;23.33;45.44
43281;BME280;62175;49.416;8.690;2023-06-10T05:08:50;100186.64;;;23.21;45.69
43281;BME280;62175;49.416;8.690;2023-06-10T05:11:17;100188.53;;;23.30;44.80
43281;BME280;62175;49.416;8.690;2023-06-10T05:13:44;100186.73;;;23.23;45.00
43281;BME280;62175;49.416;8.690;2023-06-10T05:16:10;100188.46;;;23.32;45.17
43281;BME280;62175;49.416;8.690;2023-06-10T05:18:37;100190.34;;;23.32;46.05
43281;BME280;62175;49.416;8.690;2023-06-10T05:21:04;100189.53;;;23.27;45.60
43281;BME280;62175;49.416;8.690;2023-06-10T05:23:31;100192.12;;;23.32;45.03
43281;BME280;62175;49.416;8.690;2023-06-10T05:25:57;100195.14;;;23.13;44.44
43281;BME280;62175;49.416;8.690;2023-06-10T05:28:24;100196.13;;;23.34;44.77
43281;BME280;62175;49.416;8.690;2023-06-10T05:30:51;100198.55;;;23.50;44.35
43281;BME280;62175;49.416;8.690;2023-06-10T05:33:18;100199.11;;;23.40;46.21
43281;BME280;62175;49.416;8.690;2023-06-10T05:35:46;100200.40;;;23.62;46.02
43281;BME280;62175;49.416;8.690;2023-06-10T05:38:12;100201.50;;;23.43;45.77
43281;BME280;62175;49.416;8.690;2023-06-10T05:40:40;100202.95;;;23.49;43.78
43281;BME280;62175;49.416;8.690;2023-06-10T05:43:12;100203.60;;;23.57;43.58
43281;BME280;62175;49.416;8.690;2023-06-10T05:45:39;100206.71;;;23.36;45.13
43281;BME280;62175;49.416;8.690;2023-06-10T05:48:06;100209.60;;;23.50;45.50
43281;BME280;62175;49.416;8.690;2023-06-10T05:50:34;100209.96;;;23.49;45.04
43281;BME280;62175;49.416;8.690;2023-06-10T05:53:01;100210.12;;;23.57;45.01
43281;BME280;62175;49.416;8.690;2023-06-10T05:55:29;100213.90;;;23.79;45.50
43281;BME280;62175;49.416;8.690;2023-06-10T05:57:59;100216.68;;;23.56;45.14
43281;BME280;62175;49.416;8.690;2023-06-10T06:00:26;100217.20;;;23.58;43.36
43281;BME280;62175;49.416;8.690;2023-06-10T06:02:53;100217.16;;;23.67;43.98
43281;BME280;62175;49.416;8.690;2023-06-10T06:05:20;100216.04;;;23.58;45.45
43281;BME280;62175;49.416;8.690;2023-06-10T06:07:47;100219.02;;;23.11;44.96
43281;BME280;62175;49.416;8.690;2023-06-10T06:10:14;100220.87;;;23.37;44.79
43281;BME280;62175;49.416;8.690;2023-06-10T06:12:52;100221.43;;;23.40;45.33
43281;BME280;62175;49.416;8.690;2023-06-10T06:15:20;100223.30;;;23.48;44.47
43281;BME280;62175;49.416;8.690;2023-06-10T06:17:47;100220.82;;;23.63;43.94
43281;BME280;62175;49.416;8.690;2023-06-10T06:20:14;100219.16;;;23.54;44.24
43281;BME280;62175;49.416;8.690;2023-06-10T06:22:41;100219.48;;;23.62;45.13
43281;BME280;62175;49.416;8.690;2023-06-10T06:25:08;100217.83;;;23.79;45.72
43281;BME280;62175;49.416;8.690;2023-06-10T06:27:35;100217.94;;;23.33;44.90
43281;BME280;62175;49.416;8.690;2023-06-10T06:30:02;100214.05;;;23.50;44.63
43281;BME280;62175;49.416;8.690;2023-06-10T06:32:29;100214.32;;;23.78;44.48
43281;BME280;62175;49.416;8.690;2023-06-10T06:34:57;100216.09;;;23.35;44.43
43281;BME280;62175;49.416;8.690;2023-06-10T06:37:24;100220.24;;;23.70;45.10
43281;BME280;62175;49.416;8.690;2023-06-10T06:39:52;100222.07;;;23.74;44.81
43281;BME280;62175;49.416;8.690;2023-06-10T06:42:20;100222.01;;;23.39;45.44
43281;BME280;62175;49.416;8.690;2023-06-10T06:44:47;100222.11;;;23.54;45.81
43281;BME280;62175;49.416;8.690;2023-06-10T06:47:14;100225.47;;;23.67;45.60
43281;BME280;62175;49.416;8.690;2023-06-10T06:49:41;100227.19;;;23.66;45.25
43281;BME280;62175;49.416;8.690;2023-06-10T06:52:08;100228.68;;;23.48;45.41
43281;BME280;62175;49.416;8.690;2023-06-10T06:54:34;100228.60;;;23.80;45.75
43281;BME280;62175;49.416;8.690;2023-06-10T06:57:01;100229.32;;;23.76;45.86
43281;BME280;62175;49.416;8.690;2023-06-10T06:59:28;100231.48;;;23.81;45.99
43281;BME280;62175;49.416;8.690;2023-06-10T07:01:55;100231.85;;;23.82;46.33
43281;BME280;62175;49.416;8.690;2023-06-10T07:04:22;100228.94;;;23.89;46.61
43281;BME280;62175;49.416;8.690;2023-06-10T07:06:49;100227.74;;;23.70;46.84
43281;BME280;62175;49.416;8.690;2023-06-10T07:09:16;100222.80;;;23.82;46.43
43281;BME280;62175;49.416;8.690;2023-06-10T07:11:43;100227.43;;;23.79;46.75
43281;BME280;62175;49.416;8.690;2023-06-10T07:14:10;100230.07;;;23.78;46.29
43281;BME280;62175;49.416;8.690;2023-06-10T07:16:37;100230.70;;;23.85;47.34
43281;BME280;62175;49.416;8.690;2023-06-10T07:19:04;100229.87;;;23.93;46.85
43281;BME280;62175;49.416;8.690;2023-06-10T07:21:31;100230.45;;;23.86;46.81
43281;BME280;62175;49.416;8.690;2023-06-10T07:23:58;100229.54;;;23.99;46.60
43281;BME280;62175;49.416;8.690;2023-06-10T07:26:25;100233.51;;;23.87;46.08
43281;BME280;62175;49.416;8.690;2023-06-10T07:28:52;100228.84;;;23.92;46.96
43281;BME280;62175;49.416;8.690;2023-06-10T07:31:18;100231.40;;;23.59;47.31
43281;BME280;62175;49.416;8.690;2023-06-10T07:33:46;100224.41;;;23.60;47.26
43281;BME280;62175;49.416;8.690;2023-06-10T07:36:14;100227.32;;;23.79;47.50
43281;BME280;62175;49.416;8.690;2023-06-10T07:38:40;100226.04;;;23.80;47.72
43281;BME280;62175;49.416;8.690;2023-06-10T07:41:08;100220.72;;;24.09;47.61
43281;BME280;62175;49.416;8.690;2023-06-10T07:43:35;100223.48;;;23.72;47.51
43281;BME280;62175;49.416;8.690;2023-06-10T07:46:02;100221.14;;;23.96;47.63
43281;BME280;62175;49.416;8.690;2023-06-10T07:48:29;100214.20;;;23.89;47.56
43281;BME280;62175;49.416;8.690;2023-06-10T07:50:57;100217.49;;;24.10;47.82
43281;BME280;62175;49.416;8.690;2023-06-10T07:53:24;100217.13;;;24.14;48.35
43281;BME280;62175;49.416;8.690;2023-06-10T07:55:51;100212.43;;;23.61;48.02
43281;BME280;62175;49.416;8.690;2023-06-10T07:58:17;100210.33;;;24.08;48.01
43281;BME280;62175;49.416;8.690;2023-06-10T08:00:46;100212.41;;;23.91;48.27
43281;BME280;62175;49.416;8.690;2023-06-10T08:03:13;100210.58;;;24.05;48.42
43281;BME280;62175;49.416;8.690;2023-06-10T08:05:40;100203.86;;;23.81;48.29
43281;BME280;62175;49.416;8.690;2023-06-10T08:08:06;100212.33;;;23.84;48.57
43281;BME280;62175;49.416;8.690;2023-06-10T08:10:34;100211.74;;;23.71;48.49
43281;BME280;62175;49.416;8.690;2023-06-10T08:13:00;100216.27;;;23.99;49.91
43281;BME280;62175;49.416;8.690;2023-06-10T08:15:27;100217.99;;;23.95;48.43
43281;BME280;62175;49.416;8.690;2023-06-10T08:17:54;100216.25;;;24.01;48.64
43281;BME280;62175;49.416;8.690;2023-06-10T08:20:21;100216.04;;;23.98;49.39
43281;BME280;62175;49.416;8.690;2023-06-10T08:22:48;100217.55;;;24.00;48.41
43281;BME280;62175;49.416;8.690;2023-06-10T08:25:15;100216.42;;;23.89;48.58
43281;BME280;62175;49.416;8.690;2023-06-10T08:27:42;100212.74;;;23.98;48.65
43281;BME280;62175;49.416;8.690;2023-06-10T08:30:09;100212.75;;;23.70;48.93
43281;BME280;62175;49.416;8.690;2023-06-10T08:32:37;100206.00;;;24.25;50.00
43281;BME280;62175;49.416;8.690;2023-06-10T08:35:05;100196.84;;;24.27;49.23
43281;BME280;62175;49.416;8.690;2023-06-10T08:37:32;100202.71;;;23.98;49.11
43281;BME280;62175;49.416;8.690;2023-06-10T08:39:58;100203.72;;;24.12;49.01
43281;BME280;62175;49.416;8.690;2023-06-10T08:42:29;100204.30;;;23.91;48.96
43281;BME280;62175;49.416;8.690;2023-06-10T08:45:01;100202.24;;;23.86;49.00
43281;BME280;62175;49.416;8.690;2023-06-10T08:47:30;100205.79;;;23.98;48.93
43281;BME280;62175;49.416;8.690;2023-06-10T08:49:57;100205.10;;;23.80;49.97
43281;BME280;62175;49.416;8.690;2023-06-10T08:52:29;100205.23;;;24.05;49.18
43281;BME280;62175;49.416;8.690;2023-06-10T08:55:03;100199.71;;;24.10;49.51
43281;BME280;62175;49.416;8.690;2023-06-10T08:57:31;100194.22;;;24.00;49.07
43281;BME280;62175;49.416;8.690;2023-06-10T08:59:58;100193.30;;;23.84;49.53
43281;BME280;62175;49.416;8.690;2023-06-10T09:02:25;100190.29;;;24.07;48.97
43281;BME280;62175;49.416;8.690;2023-06-10T09:04:56;100189.71;;;23.87;49.03
43281;BME280;62175;49.416;8.690;2023-06-10T09:07:23;100187.95;;;24.11;49.39
43281;BME280;62175;49.416;8.690;2023-06-10T09:09:50;100182.30;;;23.76;48.66
43281;BME280;62175;49.416;8.690;2023-06-10T09:12:18;100186.80;;;23.96;49.25
43281;BME280;62175;49.416;8.690;2023-06-10T09:14:45;100187.30;;;24.02;49.57
43281;BME280;62175;49.416;8.690;2023-06-10T09:17:12;100184.54;;;24.13;50.35
43281;BME280;62175;49.416;8.690;2023-06-10T09:19:40;100186.58;;;24.20;49.83
43281;BME280;62175;49.416;8.690;2023-06-10T09:22:08;100181.50;;;23.94;49.97
43281;BME280;62175;49.416;8.690;2023-06-10T09:24:35;100181.00;;;23.73;49.51
43281;BME280;62175;49.416;8.690;2023-06-10T09:27:04;100182.60;;;24.09;49.42
43281;BME280;62175;49.416;8.690;2023-06-10T09:29:31;100181.88;;;23.76;49.66
43281;BME280;62175;49.416;8.690;2023-06-10T09:31:59;100180.47;;;24.23;50.45
43281;BME280;62175;49.416;8.690;2023-06-10T09:34:28;100178.96;;;23.75;50.09
43281;BME280;62175;49.416;8.690;2023-06-10T09:36:55;100172.03;;;24.02;49.61
43281;BME280;62175;49.416;8.690;2023-06-10T09:39:22;100172.06;;;24.04;49.66
43281;BME280;62175;49.416;8.690;2023-06-10T09:41:49;100173.71;;;24.02;49.90
43281;BME280;62175;49.416;8.690;2023-06-10T09:44:17;100167.16;;;23.92;50.11
43281;BME280;62175;49.416;8.690;2023-06-10T09:46:47;100171.39;;;23.71;50.09
43281;BME280;62175;49.416;8.690;2023-06-10T09:49:14;100175.26;;;23.70;50.90
43281;BME280;62175;49.416;8.690;2023-06-10T09:51:50;100175.86;;;24.19;50.58
43281;BME280;62175;49.416;8.690;2023-06-10T09:54:17;100178.28;;;24.18;50.81
43281;BME280;62175;49.416;8.690;2023-06-10T09:56:47;100170.94;;;24.00;51.31
43281;BME280;62175;49.416;8.690;2023-06-10T09:59:15;100168.66;;;24.03;51.03
43281;BME280;62175;49.416;8.690;2023-06-10T10:01:42;100167.26;;;24.02;50.56
43281;BME280;62175;49.416;8.690;2023-06-10T10:04:09;100167.68;;;24.04;51.03
43281;BME280;62175;49.416;8.690;2023-06-10T10:06:36;100166.52;;;23.96;50.76
43281;BME280;62175;49.416;8.690;2023-06-10T10:09:06;100161.13;;;24.21;51.76
43281;BME280;62175;49.416;8.690;2023-06-10T10:11:34;100159.40;;;24.05;50.83
43281;BME280;62175;49.416;8.690;2023-06-10T10:14:03;100156.61;;;24.06;51.32
43281;BME280;62175;49.416;8.690;2023-06-10T10:16:35;100150.47;;;23.90;50.67
43281;BME280;62175;49.416;8.690;2023-06-10T10:19:08;100153.36;;;24.06;50.89
43281;BME280;62175;49.416;8.690;2023-06-10T10:21:39;100153.21;;;24.04;50.29
43281;BME280;62175;49.416;8.690;2023-06-10T10:24:15;100147.25;;;24.44;49.95
43281;BME280;62175;49.416;8.690;2023-06-10T10:26:43;100141.60;;;24.17;49.02
43281;BME280;62175;49.416;8.690;2023-06-10T10:29:19;100152.30;;;24.22;50.11
43281;BME280;62175;49.416;8.690;2023-06-10T10:31:49;100152.83;;;24.19;49.48
43281;BME280;62175;49.416;8.690;2023-06-10T10:34:21;100151.28;;;24.11;49.81
43281;BME280;62175;49.416;8.690;2023-06-10T10:36:50;100146.87;;;24.40;49.27
43281;BME280;62175;49.416;8.690;2023-06-10T10:39:17;100143.83;;;24.13;49.54
43281;BME280;62175;49.416;8.690;2023-06-10T10:41:45;100143.01;;;23.90;49.48
43281;BME280;62175;49.416;8.690;2023-06-10T10:44:14;100142.73;;;23.92;50.21
43281;BME280;62175;49.416;8.690;2023-06-10T10:46:43;100144.98;;;23.90;49.97
43281;BME280;62175;49.416;8.690;2023-06-10T10:49:13;100138.92;;;24.23;49.86
43281;BME280;62175;49.416;8.690;2023-06-10T10:51:55;100138.14;;;23.96;49.33
43281;BME280;62175;49.416;8.690;2023-06-10T10:54:28;100137.01;;;24.33;49.68
43281;BME280;62175;49.416;8.690;2023-06-10T10:57:13;100133.50;;;24.45;49.82
43281;BME280;62175;49.416;8.690;2023-06-10T10:59:46;100131.39;;;24.46;50.39
43281;BME280;62175;49.416;8.690;2023-06-10T11:02:17;100134.24;;;24.35;50.78
43281;BME280;62175;49.416;8.690;2023-06-10T11:04:47;100134.42;;;24.75;49.72
43281;BME280;62175;49.416;8.690;2023-06-10T11:07:14;100124.80;;;24.56;49.84
43281;BME280;62175;49.416;8.690;2023-06-10T11:10:05;100126.94;;;24.84;48.62
43281;BME280;62175;49.416;8.690;2023-06-10T11:12:51;100126.10;;;25.14;48.44
43281;BME280;62175;49.416;8.690;2023-06-10T11:15:20;100119.27;;;24.91;48.66
43281;BME280;62175;49.416;8.690;2023-06-10T11:18:08;100119.78;;;24.89;49.36
43281;BME280;62175;49.416;8.690;2023-06-10T11:20:45;100121.63;;;25.02;49.55
43281;BME280;62175;49.416;8.690;2023-06-10T11:23:31;100125.79;;;25.16;49.14
43281;BME280;62175;49.416;8.690;2023-06-10T11:26:31;100121.70;;;24.92;49.41
43281;BME280;62175;49.416;8.690;2023-06-10T11:29:04;100120.69;;;25.27;49.93
43281;BME280;62175;49.416;8.690;2023-06-10T11:31:33;100113.85;;;25.28;48.64
43281;BME280;62175;49.416;8.690;2023-06-10T11:34:01;100117.53;;;25.17;48.78
43281;BME280;62175;49.416;8.690;2023-06-10T11:36:29;100113.36;;;25.08;48.66
43281;BME280;62175;49.416;8.690;2023-06-10T11:38:57;100108.46;;;25.22;48.31
43281;BME280;62175;49.416;8.690;2023-06-10T11:41:25;100110.94;;;25.22;48.09
43281;BME280;62175;49.416;8.690;2023-06-10T11:43:52;100105.17;;;25.27;48.64
43281;BME280;62175;49.416;8.690;2023-06-10T11:46:19;100108.71;;;24.94;48.32
43281;BME280;62175;49.416;8.690;2023-06-10T11:48:50;100105.43;;;25.20;48.60
43281;BME280;62175;49.416;8.690;2023-06-10T11:51:18;100098.11;;;25.47;49.27
43281;BME280;62175;49.416;8.690;2023-06-10T11:53:44;100101.40;;;25.44;47.20
43281;BME280;62175;49.416;8.690;2023-06-10T11:56:12;100098.95;;;25.69;46.70
43281;BME280;62175;49.416;8.690;2023-06-10T11:58:43;100102.17;;;25.21;47.88
43281;BME280;62175;49.416;8.690;2023-06-10T12:01:20;100092.38;;;25.67;47.68
43281;BME280;62175;49.416;8.690;2023-06-10T12:03:47;100099.93;;;25.79;46.06
43281;BME280;62175;49.416;8.690;2023-06-10T12:06:14;100098.79;;;25.14;46.15
43281;BME280;62175;49.416;8.690;2023-06-10T12:08:42;100101.02;;;25.48;46.97
43281;BME280;62175;49.416;8.690;2023-06-10T12:11:10;100097.12;;;25.63;46.78
43281;BME280;62175;49.416;8.690;2023-06-10T12:13:45;100091.33;;;25.10;47.45
43281;BME280;62175;49.416;8.690;2023-06-10T12:16:13;100096.18;;;25.21;47.70
43281;BME280;62175;49.416;8.690;2023-06-10T12:18:41;100100.24;;;25.00;48.00
43281;BME280;62175;49.416;8.690;2023-06-10T12:21:17;100097.94;;;25.22;49.09
43281;BME280;62175;49.416;8.690;2023-06-10T12:24:02;100103.62;;;25.10;48.30
43281;BME280;62175;49.416;8.690;2023-06-10T12:26:38;100101.44;;;25.39;48.52
43281;BME280;62175;49.416;8.690;2023-06-10T12:29:18;100096.34;;;25.19;49.22
43281;BME280;62175;49.416;8.690;2023-06-10T12:31:55;100098.25;;;24.71;49.19
43281;BME280;62175;49.416;8.690;2023-06-10T12:34:29;100091.60;;;25.31;49.35
43281;BME280;62175;49.416;8.690;2023-06-10T12:36:56;100098.52;;;25.21;49.23
43281;BME280;62175;49.416;8.690;2023-06-10T12:39:24;100099.72;;;24.85;49.41
43281;BME280;62175;49.416;8.690;2023-06-10T12:41:51;100096.75;;;25.10;49.45
43281;BME280;62175;49.416;8.690;2023-06-10T12:44:18;100098.68;;;25.31;49.31
43281;BME280;62175;49.416;8.690;2023-06-10T12:46:53;100096.47;;;25.03;50.24
43281;BME280;62175;49.416;8.690;2023-06-10T12:49:22;100098.12;;;25.32;48.84
43281;BME280;62175;49.416;8.690;2023-06-10T12:51:49;100099.99;;;25.25;49.76
43281;BME280;62175;49.416;8.690;2023-06-10T12:54:16;100093.47;;;25.17;48.71
43281;BME280;62175;49.416;8.690;2023-06-10T12:56:43;100092.86;;;25.32;49.48